Time;durP1;ratioP1;P1;durP2;ratioP2;P2;SDS_P1;SDS_P2;PMS_P1;PMS_P2;Temp;Humidity;BMP_temperature;BMP_pressure;BME280_temperature;BME280_humidity;BME280_pressure;Samples;Min_cycle;Max_cycle;Signal;HPM_P1;HPM_P2
2022/01/25 00:09:32;;;;;;;54.88;27.23;;;4.80;99.90;;;;;;5050514;28;20159;-70
2022/01/25 00:15:29;;;;;;;57.53;30.05;;;4.80;99.90;;;;;;5041298;28;20466;-69
2022/01/25 00:31:03;;;;;;;54.67;28.70;;;4.70;99.90;;;;;;5049705;28;20048;-69
2022/01/25 00:33:31;;;;;;;50.78;27.90;;;4.70;99.90;;;;;;5046748;28;20040;-69
2022/01/25 00:35:57;;;;;;;57.00;29.25;;;4.80;99.90;;;;;;5048894;28;20077;-70
2022/01/25 00:38:23;;;;;;;51.05;28.15;;;4.70;99.90;;;;;;5050062;28;20045;-69
2022/01/25 00:40:49;;;;;;;55.40;29.50;;;4.70;99.90;;;;;;5045471;28;20079;-69
2022/01/25 00:43:15;;;;;;;51.53;26.70;;;4.70;99.90;;;;;;5047637;28;20049;-69
2022/01/25 00:45:40;;;;;;;54.28;28.45;;;4.80;99.90;;;;;;5050005;28;20460;-69
2022/01/25 00:48:08;;;;;;;54.40;26.98;;;4.80;99.90;;;;;;5047804;28;20115;-69
2022/01/25 00:50:40;;;;;;;54.28;27.63;;;4.70;99.90;;;;;;5047577;28;20045;-69
2022/01/25 00:55:33;;;;;;;55.92;29.35;;;4.80;99.90;;;;;;5064922;28;20048;-69
2022/01/25 00:57:59;;;;;;;53.28;29.13;;;4.70;99.90;;;;;;5048093;28;20048;-69
2022/01/25 01:00:25;;;;;;;54.90;28.80;;;4.70;99.90;;;;;;5049071;28;20052;-69
2022/01/25 01:02:51;;;;;;;57.28;29.70;;;4.70;99.90;;;;;;5042878;28;20159;-70
2022/01/25 01:05:17;;;;;;;55.97;30.02;;;4.70;99.90;;;;;;5047783;28;20056;-69
2022/01/25 01:07:43;;;;;;;57.67;29.83;;;4.80;99.90;;;;;;5035836;28;20076;-69
2022/01/25 01:10:13;;;;;;;54.38;29.17;;;4.70;99.90;;;;;;5046095;28;20088;-69
2022/01/25 01:15:37;;;;;;;57.33;29.70;;;4.70;99.90;;;;;;5048677;28;20057;-69
2022/01/25 01:29:26;;;;;;;54.90;30.45;;;4.60;99.90;;;;;;5046034;28;20393;-69
2022/01/25 01:47:36;;;;;;;54.65;28.45;;;4.70;99.90;;;;;;5048119;28;20497;-71
2022/01/25 01:50:10;;;;;;;56.33;29.27;;;4.60;99.90;;;;;;5030232;28;20409;-70
2022/01/25 01:52:36;;;;;;;56.95;30.38;;;4.70;99.90;;;;;;5048512;28;20033;-71
2022/01/25 01:55:04;;;;;;;58.67;30.42;;;4.70;99.90;;;;;;5048136;28;20049;-70
2022/01/25 01:57:30;;;;;;;55.05;30.50;;;4.70;99.90;;;;;;5046223;28;20045;-71
2022/01/25 01:59:55;;;;;;;57.97;29.90;;;4.60;99.90;;;;;;5049004;28;20511;-70
2022/01/25 02:02:21;;;;;;;54.67;28.85;;;4.70;99.90;;;;;;5048139;28;20076;-69
2022/01/25 02:04:47;;;;;;;53.78;29.98;;;4.60;99.90;;;;;;5046318;28;20037;-69
2022/01/25 02:07:12;;;;;;;55.00;29.75;;;4.70;99.90;;;;;;5048447;28;20040;-68
2022/01/25 02:09:38;;;;;;;55.47;29.45;;;4.60;99.90;;;;;;5047819;28;20048;-70
2022/01/25 02:12:05;;;;;;;52.47;29.17;;;4.60;99.90;;;;;;5047092;28;20543;-68
2022/01/25 02:14:35;;;;;;;57.30;29.92;;;4.60;99.90;;;;;;5046816;28;20512;-68
2022/01/25 02:17:12;;;;;;;50.83;28.23;;;4.70;99.90;;;;;;5032834;28;20469;-68
2022/01/25 02:22:29;;;;;;;56.17;29.35;;;4.70;99.90;;;;;;5048047;28;20053;-68
2022/01/25 02:24:55;;;;;;;54.72;29.63;;;4.60;99.90;;;;;;5050208;28;20144;-68
2022/01/25 02:27:21;;;;;;;56.20;29.75;;;4.60;99.90;;;;;;5049295;28;20056;-68
2022/01/25 02:29:47;;;;;;;55.15;29.88;;;4.60;99.90;;;;;;5045759;28;20049;-69
2022/01/25 02:32:13;;;;;;;58.55;30.85;;;4.60;99.90;;;;;;5047320;28;20044;-69
2022/01/25 02:34:40;;;;;;;61.42;30.13;;;4.60;99.90;;;;;;5029892;28;20379;-69
2022/01/25 02:37:11;;;;;;;58.15;29.20;;;4.60;99.90;;;;;;5046254;28;20029;-69
2022/01/25 02:39:38;;;;;;;55.75;28.85;;;4.70;99.90;;;;;;5048938;28;20045;-68
2022/01/25 02:42:07;;;;;;;56.83;28.55;;;4.70;99.90;;;;;;5046694;28;20055;-68
2022/01/25 02:44:34;;;;;;;54.13;29.25;;;4.60;99.90;;;;;;5047520;28;20111;-70
2022/01/25 02:49:31;;;;;;;55.88;30.10;;;6.00;99.90;;;;;;5048737;28;20167;-69
2022/01/25 02:51:57;;;;;;;57.00;29.45;;;4.60;99.90;;;;;;5040297;28;20386;-69
2022/01/25 02:54:23;;;;;;;57.25;30.95;;;4.60;99.90;;;;;;5047441;28;20075;-69
2022/01/25 02:56:49;;;;;;;57.72;31.25;;;4.60;99.90;;;;;;5047416;28;20048;-70
2022/01/25 02:59:16;;;;;;;56.53;29.05;;;5.60;99.90;;;;;;5051568;28;20131;-70
2022/01/25 03:01:43;;;;;;;55.30;29.10;;;4.70;99.90;;;;;;5050682;28;20040;-69
2022/01/25 03:04:09;;;;;;;56.95;30.58;;;4.70;99.90;;;;;;5050197;28;20044;-69
2022/01/25 03:06:36;;;;;;;60.08;31.05;;;4.60;99.90;;;;;;5051414;28;20398;-70
2022/01/25 03:09:04;;;;;;;58.47;31.52;;;4.60;99.90;;;;;;5050139;28;20106;-69
2022/01/25 03:11:30;;;;;;;59.92;31.20;;;4.60;99.90;;;;;;5044394;28;20048;-69
2022/01/25 03:13:59;;;;;;;56.80;31.42;;;4.60;99.90;;;;;;5050867;28;20032;-69
2022/01/25 03:16:35;;;;;;;58.58;31.85;;;4.60;99.90;;;;;;5053846;28;20041;-70
2022/01/25 03:19:03;;;;;;;58.78;30.90;;;4.60;99.90;;;;;;5048983;28;20041;-69
2022/01/25 03:23:57;;;;;;;60.58;31.95;;;4.60;99.90;;;;;;5050758;28;20053;-69
2022/01/25 03:26:24;;;;;;;56.40;31.08;;;4.60;99.90;;;;;;5050932;28;20082;-70
2022/01/25 03:28:51;;;;;;;57.25;30.98;;;4.60;99.90;;;;;;5047809;28;20037;-70
2022/01/25 03:31:17;;;;;;;62.05;31.65;;;4.60;99.90;;;;;;5051805;28;20045;-69
2022/01/25 03:33:44;;;;;;;57.83;32.42;;;4.60;99.90;;;;;;5048898;28;20056;-70
2022/01/25 03:36:10;;;;;;;56.70;31.40;;;4.60;99.90;;;;;;5049139;28;20053;-69
2022/01/25 03:38:38;;;;;;;57.88;31.30;;;4.60;99.90;;;;;;5049931;28;20170;-69
2022/01/25 03:41:06;;;;;;;58.33;31.23;;;4.60;99.90;;;;;;5050679;28;20546;-69
2022/01/25 03:43:32;;;;;;;58.28;30.38;;;4.60;99.90;;;;;;5048235;28;20049;-69
2022/01/25 03:46:07;;;;;;;59.75;32.10;;;4.60;99.90;;;;;;5050412;28;20048;-69
2022/01/25 03:50:59;;;;;;;58.65;31.13;;;4.60;99.90;;;;;;5039319;28;20092;-69
2022/01/25 03:53:24;;;;;;;61.28;32.58;;;4.60;99.90;;;;;;5050282;28;20076;-69
2022/01/25 03:55:50;;;;;;;56.40;31.65;;;4.60;99.90;;;;;;5049879;28;20138;-69
2022/01/25 03:58:16;;;;;;;55.85;29.33;;;4.60;99.90;;;;;;5049907;28;20057;-69
2022/01/25 04:00:42;;;;;;;58.05;31.92;;;4.60;99.90;;;;;;5050752;28;20095;-68
2022/01/25 04:03:15;;;;;;;60.13;32.80;;;4.70;99.90;;;;;;5052926;28;20048;-69
2022/01/25 04:08:08;;;;;;;57.67;32.22;;;4.60;99.90;;;;;;5049499;28;20049;-69
2022/01/25 04:10:34;;;;;;;59.67;31.83;;;4.60;99.90;;;;;;5049403;28;20048;-69
2022/01/25 04:13:00;;;;;;;60.80;32.08;;;4.60;99.90;;;;;;5048774;28;20049;-69
2022/01/25 04:15:26;;;;;;;59.40;32.75;;;4.60;99.90;;;;;;5050553;28;20076;-69
2022/01/25 04:18:02;;;;;;;62.53;32.22;;;3.50;99.90;;;;;;5048423;28;20048;-69
2022/01/25 04:20:32;;;;;;;59.08;32.83;;;4.50;99.90;;;;;;5049455;28;20072;-69
2022/01/25 04:25:42;;;;;;;57.30;31.17;;;4.50;99.90;;;;;;5048085;28;20074;-69
2022/01/25 04:28:08;;;;;;;61.20;32.33;;;4.60;99.90;;;;;;5049327;28;20045;-69
2022/01/25 04:30:34;;;;;;;64.18;32.33;;;4.60;99.90;;;;;;5047065;28;20536;-69
2022/01/25 04:33:16;;;;;;;56.03;30.80;;;5.80;99.90;;;;;;5027802;28;20048;-69
2022/01/25 04:36:25;;;;;;;59.53;31.60;;;4.60;99.90;;;;;;5050372;28;20452;-69
2022/01/25 04:49:30;;;;;;;59.10;32.15;;;4.50;99.90;;;;;;5048250;28;20370;-69
2022/01/25 04:52:12;;;;;;;59.50;30.55;;;4.50;99.90;;;;;;5049459;28;20045;-68
2022/01/25 04:54:46;;;;;;;54.58;28.63;;;4.60;99.90;;;;;;5051195;28;20127;-69
2022/01/25 04:57:24;;;;;;;57.28;31.13;;;4.60;99.90;;;;;;5048264;28;20130;-69
2022/01/25 04:59:59;;;;;;;56.83;29.65;;;4.60;99.90;;;;;;5047802;28;20045;-69
2022/01/25 05:05:00;;;;;;;61.53;31.67;;;4.50;99.90;;;;;;5048831;28;20771;-69
2022/01/25 05:07:33;;;;;;;63.83;31.92;;;4.50;99.90;;;;;;5034052;28;20063;-69
2022/01/25 05:10:01;;;;;;;60.67;32.15;;;4.50;99.90;;;;;;5046778;28;20057;-69
2022/01/25 05:12:37;;;;;;;61.22;32.15;;;4.50;99.90;;;;;;5049011;28;20040;-69
2022/01/25 05:15:07;;;;;;;61.45;32.05;;;4.60;99.90;;;;;;5050160;28;20087;-69
2022/01/25 05:17:40;;;;;;;60.28;30.65;;;4.50;99.90;;;;;;5049460;28;20137;-69
2022/01/25 05:22:51;;;;;;;61.30;31.30;;;4.60;99.90;;;;;;5047590;28;20437;-69
2022/01/25 05:25:17;;;;;;;58.28;30.88;;;4.60;99.90;;;;;;5047790;28;20170;-69
2022/01/25 05:27:43;;;;;;;61.38;30.40;;;4.60;99.90;;;;;;5047530;28;20063;-69
2022/01/25 05:30:09;;;;;;;60.97;30.75;;;4.60;99.90;;;;;;5046941;28;20193;-69
2022/01/25 05:32:35;;;;;;;59.00;31.13;;;4.60;99.90;;;;;;5049950;28;20029;-69
2022/01/25 05:35:01;;;;;;;60.00;30.33;;;4.60;99.90;;;;;;5048249;28;20102;-69
2022/01/25 05:37:27;;;;;;;59.53;30.90;;;4.60;99.90;;;;;;5047673;28;20072;-69
2022/01/25 05:39:53;;;;;;;58.10;30.20;;;4.60;99.90;;;;;;5039574;28;20056;-69
2022/01/25 05:47:24;;;;;;;61.70;31.88;;;4.60;99.90;;;;;;5066446;28;20056;-69
2022/01/25 05:49:50;;;;;;;54.38;29.85;;;4.60;99.90;;;;;;5047700;28;20124;-69
2022/01/25 05:52:16;;;;;;;58.92;29.92;;;4.60;99.90;;;;;;5048620;28;20198;-69
2022/01/25 05:54:41;;;;;;;57.05;30.55;;;4.60;99.90;;;;;;5029876;28;20076;-71
2022/01/25 05:57:07;;;;;;;58.30;31.20;;;4.70;99.90;;;;;;5045599;28;20080;-71
2022/01/25 05:59:33;;;;;;;63.65;30.95;;;4.70;99.90;;;;;;5048023;28;20053;-70
2022/01/25 06:01:59;;;;;;;53.97;30.02;;;4.70;99.90;;;;;;5046437;28;20037;-71
2022/01/25 06:04:25;;;;;;;59.85;30.45;;;4.60;99.90;;;;;;5046053;28;20485;-70
2022/01/25 06:06:51;;;;;;;55.00;29.80;;;4.70;99.90;;;;;;5047421;28;20075;-71
2022/01/25 06:09:17;;;;;;;59.88;32.03;;;4.60;99.90;;;;;;5046575;28;20083;-71
2022/01/25 06:11:42;;;;;;;60.90;31.98;;;4.60;99.90;;;;;;5047330;28;20041;-70
2022/01/25 06:14:08;;;;;;;61.13;31.40;;;4.60;99.90;;;;;;5038846;28;20146;-69
2022/01/25 06:16:34;;;;;;;59.45;30.33;;;4.70;99.90;;;;;;5045544;28;20037;-71
2022/01/25 06:19:00;;;;;;;59.85;30.67;;;4.60;99.90;;;;;;5046490;28;20454;-70
2022/01/25 06:21:26;;;;;;;58.17;30.05;;;4.60;99.90;;;;;;5047953;28;20472;-70
2022/01/25 06:23:52;;;;;;;60.97;31.80;;;4.60;99.90;;;;;;5046623;28;20409;-71
2022/01/25 06:26:18;;;;;;;60.80;31.63;;;4.70;99.90;;;;;;5047383;28;20115;-71
2022/01/25 06:28:44;;;;;;;60.88;31.00;;;4.70;99.90;;;;;;5047233;28;20029;-70
2022/01/25 06:31:10;;;;;;;60.25;30.92;;;4.60;99.90;;;;;;5046709;28;20552;-71
2022/01/25 06:33:38;;;;;;;61.85;30.33;;;4.60;99.90;;;;;;5049021;28;20041;-71
2022/01/25 06:36:04;;;;;;;65.28;33.47;;;4.60;99.90;;;;;;5050821;28;20492;-70
2022/01/25 06:38:30;;;;;;;54.85;30.05;;;4.60;99.90;;;;;;5049696;28;20459;-70
2022/01/25 06:40:56;;;;;;;58.63;31.42;;;4.60;99.90;;;;;;5049329;28;20048;-70
2022/01/25 06:43:21;;;;;;;60.80;31.73;;;4.60;99.90;;;;;;5049810;28;20210;-71
2022/01/25 06:45:55;;;;;;;57.45;30.65;;;4.60;99.90;;;;;;5052751;28;20049;-71
2022/01/25 06:48:21;;;;;;;57.45;30.75;;;4.60;99.90;;;;;;5052028;28;20445;-71
2022/01/25 06:50:47;;;;;;;59.80;31.30;;;4.70;99.90;;;;;;5050350;28;20083;-70
2022/01/25 06:53:12;;;;;;;67.10;32.95;;;4.70;99.90;;;;;;5050351;28;20052;-69
2022/01/25 06:55:39;;;;;;;64.18;32.67;;;4.70;99.90;;;;;;5051839;28;20036;-69
2022/01/25 06:58:04;;;;;;;61.05;31.48;;;4.70;99.90;;;;;;5050224;28;20143;-69
2022/01/25 07:00:30;;;;;;;61.47;30.63;;;4.70;99.90;;;;;;5050963;28;20125;-70
2022/01/25 07:02:56;;;;;;;58.45;29.67;;;4.70;99.90;;;;;;5046431;28;20109;-70
2022/01/25 07:05:22;;;;;;;63.72;32.60;;;4.70;99.90;;;;;;5050357;28;20549;-70
2022/01/25 07:07:47;;;;;;;67.47;33.15;;;4.70;99.90;;;;;;5046612;28;20183;-69
2022/01/25 07:10:13;;;;;;;62.78;33.22;;;4.70;99.90;;;;;;5044226;28;20107;-70
2022/01/25 07:12:39;;;;;;;60.53;31.58;;;4.70;99.90;;;;;;5042021;28;20485;-70
2022/01/25 07:15:05;;;;;;;67.25;32.78;;;4.70;99.90;;;;;;5049692;28;20090;-70
2022/01/25 07:17:31;;;;;;;59.88;32.15;;;4.70;99.90;;;;;;5050580;28;20041;-70
2022/01/25 07:19:57;;;;;;;58.95;31.50;;;4.70;99.90;;;;;;5049855;28;20072;-70
2022/01/25 07:22:22;;;;;;;66.35;32.05;;;4.70;99.90;;;;;;5049429;28;20091;-70
2022/01/25 07:24:48;;;;;;;61.10;32.17;;;4.70;99.90;;;;;;5048851;28;20086;-71
2022/01/25 07:27:14;;;;;;;63.60;31.58;;;4.70;99.90;;;;;;5052123;28;20095;-70
2022/01/25 07:29:39;;;;;;;61.08;32.13;;;4.70;99.90;;;;;;5052316;28;20045;-70
2022/01/25 07:32:05;;;;;;;60.25;31.55;;;4.70;99.90;;;;;;5051852;28;20041;-71
2022/01/25 07:34:31;;;;;;;58.72;30.30;;;4.70;99.90;;;;;;5049586;28;20048;-70
2022/01/25 07:36:56;;;;;;;59.72;30.92;;;4.70;99.90;;;;;;5049773;28;20116;-70
2022/01/25 07:39:22;;;;;;;61.30;30.20;;;4.70;99.90;;;;;;5049026;28;20056;-70
2022/01/25 07:41:48;;;;;;;61.10;32.00;;;4.70;99.90;;;;;;5048506;28;20436;-71
2022/01/25 07:44:15;;;;;;;62.35;32.50;;;4.70;99.90;;;;;;5048384;28;20099;-70
2022/01/25 07:46:40;;;;;;;60.47;31.95;;;4.40;99.90;;;;;;5049227;28;20052;-70
2022/01/25 07:49:06;;;;;;;61.08;31.40;;;4.70;99.90;;;;;;5048439;28;20493;-70
2022/01/25 07:51:35;;;;;;;63.70;32.00;;;4.70;99.90;;;;;;5050570;28;20515;-70
2022/01/25 07:54:01;;;;;;;61.00;31.00;;;4.70;99.90;;;;;;5043688;28;20505;-71
2022/01/25 07:56:26;;;;;;;62.15;32.08;;;4.70;99.90;;;;;;5047289;28;20045;-66
2022/01/25 07:58:52;;;;;;;61.08;32.10;;;4.70;99.90;;;;;;5048343;28;20056;-66
2022/01/25 08:01:19;;;;;;;60.58;30.40;;;4.50;99.90;;;;;;5050276;28;20077;-67
2022/01/25 08:03:45;;;;;;;63.15;30.60;;;4.70;99.90;;;;;;5048951;28;20053;-67
2022/01/25 08:06:12;;;;;;;68.32;33.20;;;4.70;99.90;;;;;;5048750;28;20405;-66
2022/01/25 08:08:39;;;;;;;69.10;32.00;;;4.70;99.90;;;;;;5050208;28;20049;-68
2022/01/25 08:11:04;;;;;;;64.55;32.90;;;4.70;99.90;;;;;;5049246;28;20413;-68
2022/01/25 08:13:30;;;;;;;65.15;32.50;;;4.70;99.90;;;;;;5050637;28;20045;-66
2022/01/25 08:15:56;;;;;;;61.25;31.73;;;4.70;99.90;;;;;;5050967;28;20528;-66
2022/01/25 08:18:22;;;;;;;65.32;32.90;;;4.70;99.90;;;;;;5047979;28;20072;-67
2022/01/25 08:20:48;;;;;;;65.10;33.65;;;4.80;99.90;;;;;;5048716;28;20131;-65
2022/01/25 08:23:14;;;;;;;63.92;32.35;;;4.70;99.90;;;;;;5047040;28;20060;-66
2022/01/25 08:25:39;;;;;;;58.20;30.98;;;4.80;99.90;;;;;;5049757;28;20037;-67
2022/01/25 08:28:05;;;;;;;65.82;34.10;;;4.80;99.90;;;;;;5049152;28;20634;-67
2022/01/25 08:30:31;;;;;;;65.95;33.88;;;4.80;99.90;;;;;;5049332;28;20120;-66
2022/01/25 08:32:57;;;;;;;66.65;33.10;;;4.80;99.90;;;;;;5049116;28;20040;-67
2022/01/25 08:35:23;;;;;;;62.22;32.58;;;4.70;99.90;;;;;;5048445;28;20551;-66
2022/01/25 08:37:49;;;;;;;66.55;33.90;;;4.70;99.90;;;;;;5048800;28;20087;-66
2022/01/25 08:40:15;;;;;;;64.00;32.35;;;4.70;99.90;;;;;;5038103;28;20046;-66
2022/01/25 08:42:41;;;;;;;68.32;33.67;;;4.70;99.90;;;;;;5041050;28;20051;-66
2022/01/25 08:45:08;;;;;;;67.15;33.28;;;4.70;99.90;;;;;;5047945;28;20132;-66
2022/01/25 08:47:36;;;;;;;69.65;34.15;;;4.70;99.90;;;;;;5029074;28;20402;-66
2022/01/25 08:50:05;;;;;;;68.25;32.70;;;4.60;99.90;;;;;;5028948;28;20080;-67
2022/01/25 08:52:31;;;;;;;67.35;33.58;;;4.70;99.90;;;;;;5028000;28;20045;-66
2022/01/25 08:54:57;;;;;;;65.80;33.90;;;4.70;99.90;;;;;;5029067;28;20490;-66
2022/01/25 08:57:23;;;;;;;65.88;33.83;;;4.70;99.90;;;;;;5026981;28;20095;-66
2022/01/25 08:59:48;;;;;;;68.35;33.58;;;4.70;99.90;;;;;;5028591;28;20049;-67
2022/01/25 09:02:14;;;;;;;69.20;34.38;;;4.70;99.90;;;;;;5031149;28;20061;-66
2022/01/25 09:04:39;;;;;;;71.72;34.33;;;4.70;99.90;;;;;;5031606;28;20037;-66
2022/01/25 09:07:05;;;;;;;66.18;33.88;;;4.70;99.90;;;;;;5031707;28;20098;-67
2022/01/25 09:09:31;;;;;;;69.75;33.25;;;4.80;99.90;;;;;;5029473;28;20053;-67
2022/01/25 09:11:57;;;;;;;66.88;32.92;;;4.80;99.90;;;;;;5026125;28;20113;-67
2022/01/25 09:14:24;;;;;;;66.72;34.50;;;4.70;99.90;;;;;;5044803;28;20124;-67
2022/01/25 09:16:50;;;;;;;67.10;34.38;;;4.80;99.90;;;;;;5045761;28;20216;-67
2022/01/25 09:19:16;;;;;;;63.65;31.90;;;4.80;99.90;;;;;;5027763;28;20029;-67
2022/01/25 09:21:42;;;;;;;66.97;33.10;;;4.80;99.90;;;;;;5029064;28;20041;-66
2022/01/25 09:24:10;;;;;;;69.75;34.45;;;4.40;99.90;;;;;;5028615;28;20485;-66
2022/01/25 09:26:36;;;;;;;64.43;32.78;;;4.80;99.90;;;;;;5029376;28;20091;-65
2022/01/25 09:29:03;;;;;;;64.82;33.03;;;4.70;99.90;;;;;;5030020;28;20052;-66
2022/01/25 09:31:28;;;;;;;70.80;34.42;;;4.70;99.90;;;;;;5029380;28;20056;-66
2022/01/25 09:33:55;;;;;;;65.22;33.45;;;5.80;99.90;;;;;;5025672;28;20491;-66
2022/01/25 09:36:20;;;;;;;65.05;33.65;;;4.80;99.90;;;;;;5027605;28;20052;-66
2022/01/25 09:38:46;;;;;;;62.67;31.02;;;4.80;99.90;;;;;;5028724;28;20045;-66
2022/01/25 09:41:12;;;;;;;66.28;32.13;;;5.20;99.90;;;;;;5026804;28;20068;-66
2022/01/25 09:43:38;;;;;;;65.03;33.03;;;4.80;99.90;;;;;;5027754;28;20072;-66
2022/01/25 09:46:03;;;;;;;68.28;33.40;;;4.80;99.90;;;;;;5043192;28;20038;-66
2022/01/25 09:48:29;;;;;;;64.63;32.75;;;4.80;99.90;;;;;;5027846;28;20064;-66
2022/01/25 09:50:59;;;;;;;65.55;32.53;;;4.80;99.90;;;;;;5028071;28;20048;-66
2022/01/25 09:53:25;;;;;;;69.93;33.38;;;4.80;99.90;;;;;;5030363;28;20075;-66
2022/01/25 09:55:51;;;;;;;68.57;33.20;;;4.80;99.90;;;;;;5028142;28;20405;-66
2022/01/25 09:58:17;;;;;;;63.80;31.60;;;4.80;99.90;;;;;;5028206;28;20444;-66
2022/01/25 10:00:45;;;;;;;65.32;33.10;;;4.90;99.90;;;;;;5026644;28;20049;-66
2022/01/25 10:03:24;;;;;;;66.57;33.30;;;4.90;99.90;;;;;;5027295;28;20049;-66
2022/01/25 10:05:51;;;;;;;68.07;33.97;;;4.90;99.90;;;;;;5028113;28;20084;-66
2022/01/25 10:08:24;;;;;;;66.07;33.13;;;4.90;99.90;;;;;;5026583;28;20049;-66
2022/01/25 10:10:55;;;;;;;63.25;31.60;;;4.90;99.90;;;;;;5026947;28;20041;-67
2022/01/25 10:13:36;;;;;;;67.38;33.72;;;4.90;99.90;;;;;;5043742;28;20494;-66
2022/01/25 10:16:10;;;;;;;70.32;31.67;;;4.90;99.90;;;;;;5027365;28;20136;-66
2022/01/25 10:19:05;;;;;;;65.63;33.00;;;4.90;99.90;;;;;;5026675;28;20092;-67
2022/01/25 10:21:34;;;;;;;66.00;32.85;;;4.90;99.90;;;;;;5031711;28;20095;-67
2022/01/25 10:24:14;;;;;;;68.30;32.95;;;4.90;99.90;;;;;;5044295;28;20114;-67
2022/01/25 10:26:52;;;;;;;70.15;33.83;;;5.40;99.90;;;;;;5048971;28;20470;-67
2022/01/25 10:29:24;;;;;;;69.30;33.95;;;4.90;99.90;;;;;;5046404;28;20136;-66
2022/01/25 10:31:53;;;;;;;62.65;32.78;;;4.90;99.90;;;;;;5035204;28;20048;-67
2022/01/25 10:34:28;;;;;;;68.95;35.05;;;4.90;99.90;;;;;;5046937;28;20041;-67
2022/01/25 10:36:56;;;;;;;68.77;33.67;;;5.00;99.90;;;;;;5045002;28;20083;-67
2022/01/25 10:39:25;;;;;;;71.50;33.58;;;5.00;99.90;;;;;;5046416;28;20136;-66
2022/01/25 10:41:51;;;;;;;69.97;33.55;;;5.00;99.90;;;;;;5045950;28;20045;-67
2022/01/25 10:44:17;;;;;;;67.68;32.50;;;4.80;99.90;;;;;;5047112;28;20118;-67
2022/01/25 10:46:43;;;;;;;70.20;33.53;;;5.00;99.90;;;;;;5030431;28;20045;-66
2022/01/25 10:49:13;;;;;;;69.00;32.65;;;5.00;99.90;;;;;;5026574;28;20049;-67
2022/01/25 10:51:47;;;;;;;66.95;32.85;;;5.00;99.90;;;;;;5041574;28;20055;-67
2022/01/25 10:54:20;;;;;;;66.53;32.80;;;5.10;99.90;;;;;;5056309;28;20131;-67
2022/01/25 10:56:56;;;;;;;70.43;34.97;;;5.30;99.90;;;;;;5052985;28;20060;-67
2022/01/25 10:59:28;;;;;;;65.22;32.00;;;5.10;99.90;;;;;;5027596;28;20187;-67
2022/01/25 11:02:05;;;;;;;63.10;31.40;;;5.10;99.90;;;;;;5025802;28;20053;-67
2022/01/25 11:04:34;;;;;;;70.43;32.42;;;5.00;99.90;;;;;;5027913;28;20068;-66
2022/01/25 11:07:11;;;;;;;66.78;33.40;;;5.00;99.90;;;;;;5046393;28;20448;-67
2022/01/25 11:09:44;;;;;;;72.47;35.28;;;5.00;99.90;;;;;;5046594;28;20052;-66
2022/01/25 11:12:15;;;;;;;69.65;33.95;;;5.00;99.90;;;;;;5059482;28;20084;-66
2022/01/25 11:14:57;;;;;;;72.80;33.33;;;5.00;99.90;;;;;;5064534;28;20088;-66
2022/01/25 11:17:31;;;;;;;72.53;34.70;;;5.10;99.90;;;;;;5066635;28;20088;-66
2022/01/25 11:20:06;;;;;;;71.35;34.92;;;5.10;99.90;;;;;;5053038;28;20044;-66
2022/01/25 11:22:35;;;;;;;73.70;35.67;;;5.10;99.90;;;;;;5051253;28;20043;-70
2022/01/25 11:25:04;;;;;;;70.97;34.72;;;5.10;99.90;;;;;;5067891;28;20040;-70
2022/01/25 11:27:31;;;;;;;66.35;33.88;;;5.10;99.90;;;;;;5048542;28;20055;-69
2022/01/25 11:30:03;;;;;;;73.10;35.97;;;5.10;99.90;;;;;;5046501;28;20122;-69
2022/01/25 11:32:33;;;;;;;68.35;33.42;;;5.10;99.90;;;;;;5046282;28;20058;-69
2022/01/25 11:35:03;;;;;;;75.10;35.72;;;6.20;99.90;;;;;;5037538;28;20049;-69
2022/01/25 11:37:58;;;;;;;69.63;34.53;;;5.10;99.90;;;;;;5027362;28;20099;-69
2022/01/25 11:40:26;;;;;;;71.55;33.40;;;5.20;99.90;;;;;;5024775;28;20060;-70
2022/01/25 11:43:07;;;;;;;64.50;32.78;;;5.10;99.90;;;;;;5041821;28;20421;-68
2022/01/25 11:45:36;;;;;;;70.53;33.63;;;5.20;99.90;;;;;;5044395;28;20146;-69
2022/01/25 11:48:02;;;;;;;69.13;33.42;;;5.20;99.90;;;;;;5046490;28;20056;-69
2022/01/25 11:50:29;;;;;;;73.35;35.08;;;5.10;99.90;;;;;;5046427;28;20591;-69
2022/01/25 11:53:05;;;;;;;66.45;32.33;;;5.10;99.90;;;;;;5048806;28;20049;-69
2022/01/25 11:55:34;;;;;;;71.40;34.72;;;5.10;99.90;;;;;;5043611;28;20507;-68
2022/01/25 11:58:12;;;;;;;69.45;34.13;;;5.10;99.90;;;;;;5027248;28;20071;-68
2022/01/25 12:00:39;;;;;;;73.32;34.58;;;5.10;99.90;;;;;;5029437;28;20167;-68
2022/01/25 12:03:26;;;;;;;71.00;34.35;;;5.20;99.90;;;;;;5027589;28;20382;-68
2022/01/25 12:06:08;;;;;;;69.40;33.40;;;5.10;99.90;;;;;;5027734;28;20398;-66
2022/01/25 12:11:40;;;;;;;72.22;35.33;;;5.10;99.90;;;;;;5028822;28;20129;-67
2022/01/25 12:14:22;;;;;;;68.50;32.83;;;5.10;99.90;;;;;;5044388;28;20485;-68
2022/01/25 12:17:03;;;;;;;68.60;33.08;;;5.10;99.90;;;;;;5032692;28;20106;-67
2022/01/25 12:19:51;;;;;;;69.47;32.83;;;5.10;99.90;;;;;;5049153;28;20088;-67
2022/01/25 12:22:26;;;;;;;69.88;33.30;;;5.10;99.90;;;;;;5049520;28;20126;-66
2022/01/25 12:25:19;;;;;;;74.35;34.13;;;5.00;99.90;;;;;;5049701;28;20179;-66
2022/01/25 12:27:49;;;;;;;76.18;35.88;;;5.00;99.90;;;;;;5032908;28;20439;-69
2022/01/25 12:30:26;;;;;;;76.38;33.58;;;5.10;99.90;;;;;;5045088;28;20352;-68
2022/01/25 12:33:02;;;;;;;72.82;34.47;;;5.00;99.90;;;;;;5029379;28;20128;-69
2022/01/25 12:35:52;;;;;;;71.85;34.45;;;5.00;99.90;;;;;;5029418;28;20429;-67
2022/01/25 12:38:24;;;;;;;71.47;34.40;;;5.00;99.90;;;;;;5030046;28;20370;-67
2022/01/25 12:40:52;;;;;;;69.38;33.33;;;5.00;99.90;;;;;;5044767;28;20359;-67
2022/01/25 12:43:27;;;;;;;71.38;33.72;;;5.00;99.90;;;;;;5028835;28;20053;-66
2022/01/25 12:46:00;;;;;;;75.82;34.25;;;5.10;99.90;;;;;;5039353;28;20071;-67
2022/01/25 12:48:39;;;;;;;71.00;33.63;;;5.00;99.90;;;;;;5047057;28;20131;-67
2022/01/25 12:51:09;;;;;;;66.13;32.47;;;5.00;99.90;;;;;;5049037;28;20052;-67
2022/01/25 12:53:38;;;;;;;70.38;34.92;;;5.10;99.90;;;;;;5049479;28;20037;-68
2022/01/25 12:56:10;;;;;;;74.53;34.17;;;5.10;99.90;;;;;;5047999;28;20049;-67
2022/01/25 12:58:36;;;;;;;71.22;34.75;;;5.00;99.90;;;;;;5048621;28;20041;-67
2022/01/25 13:01:10;;;;;;;70.90;33.95;;;5.80;99.90;;;;;;5049558;28;20055;-67
2022/01/25 13:03:49;;;;;;;72.28;33.38;;;5.10;99.90;;;;;;5048083;28;20044;-67
2022/01/25 13:06:24;;;;;;;70.47;32.67;;;5.00;99.90;;;;;;5048340;28;20126;-67
2022/01/25 13:09:00;;;;;;;70.05;33.97;;;5.00;99.90;;;;;;5046865;28;20076;-67
2022/01/25 13:16:41;;;;;;;80.22;36.72;;;5.00;99.90;;;;;;5044550;28;20167;-68
2022/01/25 13:19:08;;;;;;;73.32;35.25;;;5.00;99.90;;;;;;5027935;28;20206;-67
2022/01/25 13:21:40;;;;;;;79.32;35.83;;;5.00;99.90;;;;;;5027894;28;20045;-67
2022/01/25 13:24:11;;;;;;;71.18;33.45;;;5.00;99.90;;;;;;5027404;28;20060;-68
2022/01/25 13:26:52;;;;;;;73.38;34.20;;;5.10;99.90;;;;;;5026460;28;20068;-67
2022/01/25 13:32:11;;;;;;;75.18;35.63;;;5.10;99.90;;;;;;5029104;28;20050;-66
2022/01/25 13:34:37;;;;;;;75.55;35.35;;;5.20;99.90;;;;;;5010432;28;20231;-66
2022/01/25 13:37:03;;;;;;;75.85;36.00;;;5.20;99.90;;;;;;5027643;28;20068;-66
2022/01/25 13:39:30;;;;;;;69.65;33.28;;;6.90;99.90;;;;;;5027736;28;20045;-67
2022/01/25 13:42:04;;;;;;;71.25;34.78;;;6.30;99.90;;;;;;5026954;28;20083;-67
2022/01/25 13:47:14;;;;;;;68.40;31.40;;;5.20;99.90;;;;;;5028241;28;20060;-66
2022/01/25 13:49:41;;;;;;;76.70;34.40;;;6.00;99.90;;;;;;5027606;28;20037;-67
2022/01/25 13:52:06;;;;;;;74.07;34.55;;;5.20;99.90;;;;;;5028122;28;20053;-66
2022/01/25 13:54:32;;;;;;;72.43;33.95;;;5.50;99.90;;;;;;5028839;28;20466;-67
2022/01/25 13:57:10;;;;;;;72.93;33.83;;;5.10;99.90;;;;;;5026815;28;20159;-67
2022/01/25 13:59:36;;;;;;;70.35;34.28;;;5.00;99.90;;;;;;5026592;28;20456;-67
2022/01/25 14:02:03;;;;;;;71.80;33.80;;;5.10;99.90;;;;;;5028498;28;20401;-66
2022/01/25 14:04:30;;;;;;;69.03;34.33;;;5.10;99.90;;;;;;5032008;28;20367;-66
2022/01/25 14:06:57;;;;;;;74.32;36.35;;;5.00;99.90;;;;;;5027597;28;20060;-66
2022/01/25 14:09:30;;;;;;;70.43;33.38;;;5.00;99.90;;;;;;5036887;28;20049;-66
2022/01/25 14:25:36;;;;;;;79.88;35.03;;;5.20;99.90;;;;;;5028505;28;20045;-66
2022/01/25 14:28:12;;;;;;;71.22;32.35;;;5.30;99.90;;;;;;5025785;28;20069;-66
2022/01/25 14:30:44;;;;;;;73.82;34.15;;;5.20;99.90;;;;;;5043054;28;20517;-67
2022/01/25 14:33:14;;;;;;;71.82;34.45;;;5.10;99.90;;;;;;5026891;28;20061;-67
2022/01/25 14:35:49;;;;;;;68.38;33.38;;;5.10;99.90;;;;;;5026954;28;20390;-67
2022/01/25 14:38:20;;;;;;;72.57;33.77;;;5.10;99.90;;;;;;5028121;28;20037;-67
2022/01/25 14:41:01;;;;;;;73.97;32.97;;;5.10;99.90;;;;;;5027147;28;20272;-66
2022/01/25 14:43:33;;;;;;;71.93;33.80;;;5.10;99.90;;;;;;5026753;28;20570;-67
2022/01/25 14:46:13;;;;;;;68.47;31.35;;;5.10;99.90;;;;;;5027267;28;20037;-67